sensor_id;sensor_type;location;lat;lon;timestamp;P1;durP1;ratioP1;P2;durP2;ratioP2
68976;SDS011;56029;52.568;13.588;2024-02-21T00:00:54;20.85;;;6.45;;
68976;SDS011;56029;52.568;13.588;2024-02-21T00:03:40;18.20;;;6.13;;
68976;SDS011;56029;52.568;13.588;2024-02-21T00:06:05;16.00;;;6.30;;
68976;SDS011;56029;52.568;13.588;2024-02-21T00:08:31;17.63;;;5.70;;
68976;SDS011;56029;52.568;13.588;2024-02-21T00:10:57;16.83;;;6.10;;
68976;SDS011;56029;52.568;13.588;2024-02-21T00:13:22;16.52;;;5.88;;
68976;SDS011;56029;52.568;13.588;2024-02-21T00:15:48;19.77;;;6.30;;
68976;SDS011;56029;52.568;13.588;2024-02-21T00:18:13;19.70;;;6.57;;
68976;SDS011;56029;52.568;13.588;2024-02-21T00:20:39;16.88;;;6.45;;
68976;SDS011;56029;52.568;13.588;2024-02-21T00:23:04;17.30;;;6.33;;
68976;SDS011;56029;52.568;13.588;2024-02-21T00:25:30;21.60;;;6.60;;
68976;SDS011;56029;52.568;13.588;2024-02-21T00:27:55;17.65;;;6.07;;
68976;SDS011;56029;52.568;13.588;2024-02-21T00:30:21;16.03;;;5.67;;
68976;SDS011;56029;52.568;13.588;2024-02-21T00:32:47;16.83;;;5.80;;
68976;SDS011;56029;52.568;13.588;2024-02-21T00:35:12;16.20;;;5.70;;
68976;SDS011;56029;52.568;13.588;2024-02-21T00:37:39;17.23;;;5.80;;
68976;SDS011;56029;52.568;13.588;2024-02-21T00:40:04;15.67;;;5.20;;
68976;SDS011;56029;52.568;13.588;2024-02-21T00:42:30;16.65;;;5.55;;
68976;SDS011;56029;52.568;13.588;2024-02-21T00:44:56;16.13;;;5.80;;
68976;SDS011;56029;52.568;13.588;2024-02-21T00:47:22;16.10;;;6.00;;
68976;SDS011;56029;52.568;13.588;2024-02-21T00:49:47;17.10;;;6.57;;
68976;SDS011;56029;52.568;13.588;2024-02-21T00:52:13;15.73;;;5.30;;
68976;SDS011;56029;52.568;13.588;2024-02-21T00:54:38;15.43;;;5.50;;
68976;SDS011;56029;52.568;13.588;2024-02-21T00:57:04;15.43;;;5.50;;
68976;SDS011;56029;52.568;13.588;2024-02-21T00:59:29;16.90;;;5.27;;
68976;SDS011;56029;52.568;13.588;2024-02-21T01:01:55;15.82;;;6.20;;
68976;SDS011;56029;52.568;13.588;2024-02-21T01:04:20;16.13;;;5.43;;
68976;SDS011;56029;52.568;13.588;2024-02-21T01:06:46;17.47;;;5.33;;
68976;SDS011;56029;52.568;13.588;2024-02-21T01:09:11;17.13;;;6.27;;
68976;SDS011;56029;52.568;13.588;2024-02-21T01:11:39;14.77;;;5.10;;
68976;SDS011;56029;52.568;13.588;2024-02-21T01:14:04;16.00;;;5.90;;
68976;SDS011;56029;52.568;13.588;2024-02-21T01:16:30;14.98;;;5.13;;
68976;SDS011;56029;52.568;13.588;2024-02-21T01:18:55;17.40;;;5.30;;
68976;SDS011;56029;52.568;13.588;2024-02-21T01:21:21;18.23;;;5.53;;
68976;SDS011;56029;52.568;13.588;2024-02-21T01:23:46;13.83;;;4.97;;
68976;SDS011;56029;52.568;13.588;2024-02-21T01:26:12;16.73;;;5.10;;
68976;SDS011;56029;52.568;13.588;2024-02-21T01:28:37;14.50;;;4.73;;
68976;SDS011;56029;52.568;13.588;2024-02-21T01:31:03;15.37;;;5.27;;
68976;SDS011;56029;52.568;13.588;2024-02-21T01:33:28;17.53;;;4.80;;
68976;SDS011;56029;52.568;13.588;2024-02-21T01:35:54;15.07;;;4.80;;
68976;SDS011;56029;52.568;13.588;2024-02-21T01:38:19;14.87;;;4.97;;
68976;SDS011;56029;52.568;13.588;2024-02-21T01:40:45;13.53;;;4.57;;
68976;SDS011;56029;52.568;13.588;2024-02-21T01:43:17;15.32;;;4.55;;
68976;SDS011;56029;52.568;13.588;2024-02-21T01:45:52;12.77;;;4.50;;
68976;SDS011;56029;52.568;13.588;2024-02-21T01:48:19;14.05;;;4.55;;
68976;SDS011;56029;52.568;13.588;2024-02-21T01:50:45;13.43;;;4.53;;
68976;SDS011;56029;52.568;13.588;2024-02-21T01:53:12;15.00;;;5.32;;
68976;SDS011;56029;52.568;13.588;2024-02-21T01:55:40;13.43;;;4.72;;
68976;SDS011;56029;52.568;13.588;2024-02-21T01:58:05;14.60;;;4.63;;
68976;SDS011;56029;52.568;13.588;2024-02-21T02:00:31;18.53;;;4.83;;
68976;SDS011;56029;52.568;13.588;2024-02-21T02:02:57;14.82;;;4.63;;
68976;SDS011;56029;52.568;13.588;2024-02-21T02:05:23;15.65;;;4.82;;
68976;SDS011;56029;52.568;13.588;2024-02-21T02:07:48;12.13;;;4.90;;
68976;SDS011;56029;52.568;13.588;2024-02-21T02:10:14;11.32;;;4.32;;
68976;SDS011;56029;52.568;13.588;2024-02-21T02:12:39;12.97;;;4.53;;
68976;SDS011;56029;52.568;13.588;2024-02-21T02:15:05;18.97;;;4.90;;
68976;SDS011;56029;52.568;13.588;2024-02-21T02:17:31;17.77;;;5.20;;
68976;SDS011;56029;52.568;13.588;2024-02-21T02:19:57;14.70;;;5.00;;
68976;SDS011;56029;52.568;13.588;2024-02-21T02:22:24;14.50;;;4.93;;
68976;SDS011;56029;52.568;13.588;2024-02-21T02:24:57;14.60;;;4.05;;
68976;SDS011;56029;52.568;13.588;2024-02-21T02:27:22;16.10;;;4.50;;
68976;SDS011;56029;52.568;13.588;2024-02-21T02:29:48;13.18;;;4.88;;
68976;SDS011;56029;52.568;13.588;2024-02-21T02:32:14;15.10;;;4.80;;
68976;SDS011;56029;52.568;13.588;2024-02-21T02:34:39;15.20;;;4.65;;
68976;SDS011;56029;52.568;13.588;2024-02-21T02:37:05;12.17;;;4.40;;
68976;SDS011;56029;52.568;13.588;2024-02-21T02:39:31;15.40;;;4.82;;
68976;SDS011;56029;52.568;13.588;2024-02-21T02:41:56;14.07;;;4.40;;
68976;SDS011;56029;52.568;13.588;2024-02-21T02:44:22;16.63;;;5.10;;
68976;SDS011;56029;52.568;13.588;2024-02-21T02:46:47;14.10;;;5.10;;
68976;SDS011;56029;52.568;13.588;2024-02-21T02:49:13;16.48;;;5.03;;
68976;SDS011;56029;52.568;13.588;2024-02-21T02:51:42;17.37;;;5.40;;
68976;SDS011;56029;52.568;13.588;2024-02-21T02:54:08;15.30;;;5.05;;
68976;SDS011;56029;52.568;13.588;2024-02-21T02:56:33;13.80;;;5.13;;
68976;SDS011;56029;52.568;13.588;2024-02-21T02:58:59;15.37;;;5.40;;
68976;SDS011;56029;52.568;13.588;2024-02-21T03:01:24;16.23;;;5.05;;
68976;SDS011;56029;52.568;13.588;2024-02-21T03:03:50;16.97;;;5.40;;
68976;SDS011;56029;52.568;13.588;2024-02-21T03:06:15;17.90;;;5.07;;
68976;SDS011;56029;52.568;13.588;2024-02-21T03:08:41;14.10;;;5.78;;
68976;SDS011;56029;52.568;13.588;2024-02-21T03:11:06;17.80;;;5.87;;
68976;SDS011;56029;52.568;13.588;2024-02-21T03:13:32;19.97;;;5.77;;
68976;SDS011;56029;52.568;13.588;2024-02-21T03:15:57;20.30;;;6.28;;
68976;SDS011;56029;52.568;13.588;2024-02-21T03:18:23;14.53;;;5.63;;
68976;SDS011;56029;52.568;13.588;2024-02-21T03:20:48;18.13;;;5.97;;
68976;SDS011;56029;52.568;13.588;2024-02-21T03:23:14;21.42;;;5.80;;
68976;SDS011;56029;52.568;13.588;2024-02-21T03:25:39;14.10;;;5.70;;
68976;SDS011;56029;52.568;13.588;2024-02-21T03:28:05;17.53;;;6.43;;
68976;SDS011;56029;52.568;13.588;2024-02-21T03:30:30;21.10;;;6.23;;
68976;SDS011;56029;52.568;13.588;2024-02-21T03:32:56;16.80;;;5.70;;
68976;SDS011;56029;52.568;13.588;2024-02-21T03:35:22;17.77;;;6.22;;
68976;SDS011;56029;52.568;13.588;2024-02-21T03:37:48;18.87;;;6.80;;
68976;SDS011;56029;52.568;13.588;2024-02-21T03:40:13;18.33;;;6.20;;
68976;SDS011;56029;52.568;13.588;2024-02-21T03:42:39;20.25;;;6.95;;
68976;SDS011;56029;52.568;13.588;2024-02-21T03:45:04;23.27;;;6.77;;
68976;SDS011;56029;52.568;13.588;2024-02-21T03:47:30;21.52;;;7.10;;
68976;SDS011;56029;52.568;13.588;2024-02-21T03:49:56;20.03;;;6.63;;
68976;SDS011;56029;52.568;13.588;2024-02-21T03:52:21;16.98;;;6.32;;
68976;SDS011;56029;52.568;13.588;2024-02-21T03:54:47;17.00;;;6.47;;
68976;SDS011;56029;52.568;13.588;2024-02-21T03:57:13;19.07;;;6.97;;
68976;SDS011;56029;52.568;13.588;2024-02-21T03:59:38;21.27;;;7.00;;
68976;SDS011;56029;52.568;13.588;2024-02-21T04:02:04;19.90;;;6.68;;
68976;SDS011;56029;52.568;13.588;2024-02-21T04:04:29;18.17;;;6.70;;
68976;SDS011;56029;52.568;13.588;2024-02-21T04:06:55;17.05;;;7.32;;
68976;SDS011;56029;52.568;13.588;2024-02-21T04:09:24;18.65;;;6.65;;
68976;SDS011;56029;52.568;13.588;2024-02-21T04:11:52;17.10;;;6.67;;
68976;SDS011;56029;52.568;13.588;2024-02-21T04:14:17;16.33;;;6.28;;
68976;SDS011;56029;52.568;13.588;2024-02-21T04:16:43;16.93;;;6.37;;
68976;SDS011;56029;52.568;13.588;2024-02-21T04:19:09;19.30;;;7.03;;
68976;SDS011;56029;52.568;13.588;2024-02-21T04:21:35;18.77;;;6.82;;
68976;SDS011;56029;52.568;13.588;2024-02-21T04:24:03;21.92;;;7.35;;
68976;SDS011;56029;52.568;13.588;2024-02-21T04:26:29;19.70;;;6.60;;
68976;SDS011;56029;52.568;13.588;2024-02-21T04:28:54;17.45;;;7.00;;
68976;SDS011;56029;52.568;13.588;2024-02-21T04:31:22;15.97;;;6.50;;
68976;SDS011;56029;52.568;13.588;2024-02-21T04:33:47;18.17;;;7.00;;
68976;SDS011;56029;52.568;13.588;2024-02-21T04:36:13;20.47;;;7.50;;
68976;SDS011;56029;52.568;13.588;2024-02-21T04:38:39;17.53;;;6.30;;
68976;SDS011;56029;52.568;13.588;2024-02-21T04:41:05;19.17;;;7.30;;
68976;SDS011;56029;52.568;13.588;2024-02-21T04:43:30;21.55;;;7.45;;
68976;SDS011;56029;52.568;13.588;2024-02-21T04:45:56;19.33;;;6.93;;
68976;SDS011;56029;52.568;13.588;2024-02-21T04:48:21;18.50;;;6.63;;
68976;SDS011;56029;52.568;13.588;2024-02-21T04:50:47;20.10;;;7.30;;
68976;SDS011;56029;52.568;13.588;2024-02-21T04:53:12;18.83;;;6.57;;
68976;SDS011;56029;52.568;13.588;2024-02-21T04:55:38;18.40;;;6.60;;
68976;SDS011;56029;52.568;13.588;2024-02-21T04:58:04;21.27;;;7.63;;
68976;SDS011;56029;52.568;13.588;2024-02-21T05:00:29;17.77;;;7.00;;
68976;SDS011;56029;52.568;13.588;2024-02-21T05:02:55;21.83;;;7.20;;
68976;SDS011;56029;52.568;13.588;2024-02-21T05:05:20;20.48;;;6.50;;
68976;SDS011;56029;52.568;13.588;2024-02-21T05:07:46;19.13;;;6.80;;
68976;SDS011;56029;52.568;13.588;2024-02-21T05:10:11;17.80;;;6.50;;
68976;SDS011;56029;52.568;13.588;2024-02-21T05:12:37;13.73;;;6.07;;
68976;SDS011;56029;52.568;13.588;2024-02-21T05:15:02;21.60;;;6.43;;
68976;SDS011;56029;52.568;13.588;2024-02-21T05:17:28;19.50;;;6.18;;
68976;SDS011;56029;52.568;13.588;2024-02-21T05:19:54;24.63;;;6.50;;
68976;SDS011;56029;52.568;13.588;2024-02-21T05:22:19;19.17;;;6.67;;
68976;SDS011;56029;52.568;13.588;2024-02-21T05:24:45;17.00;;;6.30;;
68976;SDS011;56029;52.568;13.588;2024-02-21T05:27:10;19.33;;;6.70;;
68976;SDS011;56029;52.568;13.588;2024-02-21T05:29:36;18.53;;;6.40;;
68976;SDS011;56029;52.568;13.588;2024-02-21T05:32:01;18.87;;;6.60;;
68976;SDS011;56029;52.568;13.588;2024-02-21T05:34:27;19.40;;;7.13;;
68976;SDS011;56029;52.568;13.588;2024-02-21T05:36:53;19.15;;;7.00;;
68976;SDS011;56029;52.568;13.588;2024-02-21T05:39:19;17.60;;;6.93;;
68976;SDS011;56029;52.568;13.588;2024-02-21T05:41:45;17.65;;;6.07;;
68976;SDS011;56029;52.568;13.588;2024-02-21T05:44:11;20.50;;;6.85;;
68976;SDS011;56029;52.568;13.588;2024-02-21T05:46:37;18.95;;;6.82;;
68976;SDS011;56029;52.568;13.588;2024-02-21T05:49:02;19.93;;;6.50;;
68976;SDS011;56029;52.568;13.588;2024-02-21T05:51:32;18.50;;;6.70;;
68976;SDS011;56029;52.568;13.588;2024-02-21T05:53:58;20.73;;;6.38;;
68976;SDS011;56029;52.568;13.588;2024-02-21T05:56:23;21.07;;;6.50;;
68976;SDS011;56029;52.568;13.588;2024-02-21T05:58:49;16.95;;;7.07;;
68976;SDS011;56029;52.568;13.588;2024-02-21T06:01:14;20.33;;;6.87;;
68976;SDS011;56029;52.568;13.588;2024-02-21T06:03:43;15.65;;;6.60;;
68976;SDS011;56029;52.568;13.588;2024-02-21T06:06:09;20.57;;;7.07;;
68976;SDS011;56029;52.568;13.588;2024-02-21T06:08:34;20.75;;;6.65;;
68976;SDS011;56029;52.568;13.588;2024-02-21T06:11:02;18.30;;;6.60;;
68976;SDS011;56029;52.568;13.588;2024-02-21T06:13:28;17.30;;;7.20;;
68976;SDS011;56029;52.568;13.588;2024-02-21T06:15:53;19.57;;;6.77;;
68976;SDS011;56029;52.568;13.588;2024-02-21T06:18:20;16.52;;;6.80;;
68976;SDS011;56029;52.568;13.588;2024-02-21T06:20:45;17.23;;;6.53;;
68976;SDS011;56029;52.568;13.588;2024-02-21T06:23:12;15.90;;;6.67;;
68976;SDS011;56029;52.568;13.588;2024-02-21T06:25:38;18.95;;;6.68;;
68976;SDS011;56029;52.568;13.588;2024-02-21T06:28:04;15.30;;;6.60;;
68976;SDS011;56029;52.568;13.588;2024-02-21T06:30:30;17.65;;;6.70;;
68976;SDS011;56029;52.568;13.588;2024-02-21T06:32:56;16.77;;;6.93;;
68976;SDS011;56029;52.568;13.588;2024-02-21T06:35:22;19.80;;;7.05;;
68976;SDS011;56029;52.568;13.588;2024-02-21T06:37:47;15.50;;;6.60;;
68976;SDS011;56029;52.568;13.588;2024-02-21T06:40:13;17.67;;;6.70;;
68976;SDS011;56029;52.568;13.588;2024-02-21T06:42:39;15.83;;;6.90;;
68976;SDS011;56029;52.568;13.588;2024-02-21T06:45:04;18.83;;;6.87;;
68976;SDS011;56029;52.568;13.588;2024-02-21T06:47:30;18.25;;;6.25;;
68976;SDS011;56029;52.568;13.588;2024-02-21T06:49:56;18.07;;;6.90;;
68976;SDS011;56029;52.568;13.588;2024-02-21T06:52:21;20.92;;;7.05;;
68976;SDS011;56029;52.568;13.588;2024-02-21T06:54:47;16.73;;;6.50;;
68976;SDS011;56029;52.568;13.588;2024-02-21T06:57:13;18.98;;;7.03;;
68976;SDS011;56029;52.568;13.588;2024-02-21T06:59:41;17.23;;;6.50;;
68976;SDS011;56029;52.568;13.588;2024-02-21T07:02:07;16.52;;;7.35;;
68976;SDS011;56029;52.568;13.588;2024-02-21T07:04:32;19.15;;;6.85;;
68976;SDS011;56029;52.568;13.588;2024-02-21T07:06:58;18.57;;;6.60;;
68976;SDS011;56029;52.568;13.588;2024-02-21T07:09:23;19.97;;;6.57;;
68976;SDS011;56029;52.568;13.588;2024-02-21T07:11:49;22.33;;;6.65;;
68976;SDS011;56029;52.568;13.588;2024-02-21T07:14:14;21.97;;;7.40;;
68976;SDS011;56029;52.568;13.588;2024-02-21T07:16:40;17.70;;;6.73;;
68976;SDS011;56029;52.568;13.588;2024-02-21T07:19:06;16.07;;;6.53;;
68976;SDS011;56029;52.568;13.588;2024-02-21T07:21:34;18.48;;;6.45;;
68976;SDS011;56029;52.568;13.588;2024-02-21T07:23:59;16.57;;;7.07;;
68976;SDS011;56029;52.568;13.588;2024-02-21T07:26:25;19.53;;;6.67;;
68976;SDS011;56029;52.568;13.588;2024-02-21T07:28:53;17.10;;;6.97;;
68976;SDS011;56029;52.568;13.588;2024-02-21T07:31:18;21.95;;;7.18;;
68976;SDS011;56029;52.568;13.588;2024-02-21T07:33:44;18.30;;;7.17;;
68976;SDS011;56029;52.568;13.588;2024-02-21T07:36:10;18.08;;;7.13;;
68976;SDS011;56029;52.568;13.588;2024-02-21T07:38:36;20.67;;;7.28;;
68976;SDS011;56029;52.568;13.588;2024-02-21T07:41:01;17.97;;;6.33;;
68976;SDS011;56029;52.568;13.588;2024-02-21T07:43:27;21.23;;;6.95;;
68976;SDS011;56029;52.568;13.588;2024-02-21T07:45:55;17.10;;;6.83;;
68976;SDS011;56029;52.568;13.588;2024-02-21T07:48:21;20.95;;;7.18;;
68976;SDS011;56029;52.568;13.588;2024-02-21T07:50:47;17.63;;;6.60;;
68976;SDS011;56029;52.568;13.588;2024-02-21T07:53:12;15.73;;;6.70;;
68976;SDS011;56029;52.568;13.588;2024-02-21T07:55:38;17.60;;;6.50;;
68976;SDS011;56029;52.568;13.588;2024-02-21T07:58:03;19.87;;;6.57;;
68976;SDS011;56029;52.568;13.588;2024-02-21T08:00:29;17.13;;;6.30;;
68976;SDS011;56029;52.568;13.588;2024-02-21T08:02:54;18.10;;;7.20;;
68976;SDS011;56029;52.568;13.588;2024-02-21T08:05:20;17.17;;;6.32;;
68976;SDS011;56029;52.568;13.588;2024-02-21T08:07:45;15.80;;;6.00;;
68976;SDS011;56029;52.568;13.588;2024-02-21T08:10:11;17.43;;;6.33;;
68976;SDS011;56029;52.568;13.588;2024-02-21T08:12:36;18.07;;;6.80;;
68976;SDS011;56029;52.568;13.588;2024-02-21T08:15:02;14.15;;;6.15;;
68976;SDS011;56029;52.568;13.588;2024-02-21T08:17:28;14.60;;;5.93;;
68976;SDS011;56029;52.568;13.588;2024-02-21T08:19:54;14.33;;;5.73;;
68976;SDS011;56029;52.568;13.588;2024-02-21T08:22:19;15.77;;;6.17;;
68976;SDS011;56029;52.568;13.588;2024-02-21T08:24:45;14.93;;;6.55;;
68976;SDS011;56029;52.568;13.588;2024-02-21T08:27:11;15.97;;;5.93;;
68976;SDS011;56029;52.568;13.588;2024-02-21T08:29:36;16.27;;;6.57;;
68976;SDS011;56029;52.568;13.588;2024-02-21T08:32:02;16.50;;;5.90;;
68976;SDS011;56029;52.568;13.588;2024-02-21T08:34:27;17.13;;;6.85;;
68976;SDS011;56029;52.568;13.588;2024-02-21T08:36:53;16.87;;;5.70;;
68976;SDS011;56029;52.568;13.588;2024-02-21T08:39:19;17.87;;;6.23;;
68976;SDS011;56029;52.568;13.588;2024-02-21T08:41:44;13.02;;;5.35;;
68976;SDS011;56029;52.568;13.588;2024-02-21T08:44:10;18.53;;;6.30;;
68976;SDS011;56029;52.568;13.588;2024-02-21T08:46:35;18.13;;;6.90;;
68976;SDS011;56029;52.568;13.588;2024-02-21T08:49:01;20.08;;;6.97;;
68976;SDS011;56029;52.568;13.588;2024-02-21T08:51:26;16.10;;;6.53;;
68976;SDS011;56029;52.568;13.588;2024-02-21T08:53:52;17.83;;;6.95;;
68976;SDS011;56029;52.568;13.588;2024-02-21T08:56:17;16.90;;;6.43;;
68976;SDS011;56029;52.568;13.588;2024-02-21T08:58:43;18.23;;;6.50;;
68976;SDS011;56029;52.568;13.588;2024-02-21T09:01:08;16.65;;;6.18;;
68976;SDS011;56029;52.568;13.588;2024-02-21T09:03:34;18.97;;;6.57;;
68976;SDS011;56029;52.568;13.588;2024-02-21T09:06:00;17.20;;;7.37;;
68976;SDS011;56029;52.568;13.588;2024-02-21T09:08:26;18.02;;;6.78;;
68976;SDS011;56029;52.568;13.588;2024-02-21T09:10:51;15.13;;;6.63;;
68976;SDS011;56029;52.568;13.588;2024-02-21T09:13:17;18.30;;;7.00;;
68976;SDS011;56029;52.568;13.588;2024-02-21T09:15:43;19.50;;;7.23;;
68976;SDS011;56029;52.568;13.588;2024-02-21T09:18:11;20.60;;;7.68;;
68976;SDS011;56029;52.568;13.588;2024-02-21T09:20:36;17.60;;;7.00;;
68976;SDS011;56029;52.568;13.588;2024-02-21T09:23:02;18.57;;;7.40;;
68976;SDS011;56029;52.568;13.588;2024-02-21T09:25:27;17.63;;;7.32;;
68976;SDS011;56029;52.568;13.588;2024-02-21T09:27:53;15.97;;;7.20;;
68976;SDS011;56029;52.568;13.588;2024-02-21T09:30:19;18.27;;;7.05;;
68976;SDS011;56029;52.568;13.588;2024-02-21T09:32:45;23.67;;;8.00;;
68976;SDS011;56029;52.568;13.588;2024-02-21T09:35:11;16.23;;;7.00;;
68976;SDS011;56029;52.568;13.588;2024-02-21T09:37:36;18.80;;;7.30;;
68976;SDS011;56029;52.568;13.588;2024-02-21T09:40:02;21.33;;;7.37;;
68976;SDS011;56029;52.568;13.588;2024-02-21T09:42:37;17.47;;;7.17;;
68976;SDS011;56029;52.568;13.588;2024-02-21T09:45:08;17.23;;;7.43;;
68976;SDS011;56029;52.568;13.588;2024-02-21T09:50:04;17.87;;;7.10;;
68976;SDS011;56029;52.568;13.588;2024-02-21T09:52:30;13.18;;;5.07;;
68976;SDS011;56029;52.568;13.588;2024-02-21T09:54:58;19.33;;;7.00;;
68976;SDS011;56029;52.568;13.588;2024-02-21T09:57:24;16.53;;;6.30;;
68976;SDS011;56029;52.568;13.588;2024-02-21T09:59:50;12.15;;;5.13;;
68976;SDS011;56029;52.568;13.588;2024-02-21T10:02:17;17.73;;;6.93;;
68976;SDS011;56029;52.568;13.588;2024-02-21T10:04:42;16.97;;;6.97;;
68976;SDS011;56029;52.568;13.588;2024-02-21T10:07:08;17.45;;;7.35;;
68976;SDS011;56029;52.568;13.588;2024-02-21T10:09:33;15.57;;;7.00;;
68976;SDS011;56029;52.568;13.588;2024-02-21T10:12:08;18.57;;;7.80;;
68976;SDS011;56029;52.568;13.588;2024-02-21T10:14:35;18.60;;;7.70;;
68976;SDS011;56029;52.568;13.588;2024-02-21T10:17:00;16.47;;;7.33;;
68976;SDS011;56029;52.568;13.588;2024-02-21T10:19:26;18.73;;;7.32;;
68976;SDS011;56029;52.568;13.588;2024-02-21T10:22:03;15.10;;;6.70;;
68976;SDS011;56029;52.568;13.588;2024-02-21T10:24:31;16.83;;;7.00;;
68976;SDS011;56029;52.568;13.588;2024-02-21T10:27:03;16.13;;;7.35;;
68976;SDS011;56029;52.568;13.588;2024-02-21T10:29:32;19.35;;;7.20;;
68976;SDS011;56029;52.568;13.588;2024-02-21T10:32:07;16.40;;;7.10;;
68976;SDS011;56029;52.568;13.588;2024-02-21T10:34:37;16.70;;;6.90;;
68976;SDS011;56029;52.568;13.588;2024-02-21T10:37:04;17.42;;;7.20;;
68976;SDS011;56029;52.568;13.588;2024-02-21T10:39:37;16.33;;;7.60;;
68976;SDS011;56029;52.568;13.588;2024-02-21T10:42:04;15.80;;;6.68;;
68976;SDS011;56029;52.568;13.588;2024-02-21T10:44:30;14.20;;;6.68;;
68976;SDS011;56029;52.568;13.588;2024-02-21T10:46:57;17.33;;;7.22;;
68976;SDS011;56029;52.568;13.588;2024-02-21T10:49:24;14.30;;;6.57;;
68976;SDS011;56029;52.568;13.588;2024-02-21T10:51:52;14.55;;;6.70;;
68976;SDS011;56029;52.568;13.588;2024-02-21T10:57:04;17.70;;;7.10;;
68976;SDS011;56029;52.568;13.588;2024-02-21T10:59:32;14.60;;;6.72;;
68976;SDS011;56029;52.568;13.588;2024-02-21T11:01:57;16.67;;;6.87;;
68976;SDS011;56029;52.568;13.588;2024-02-21T11:04:23;15.02;;;6.80;;
68976;SDS011;56029;52.568;13.588;2024-02-21T11:06:50;15.20;;;6.50;;
68976;SDS011;56029;52.568;13.588;2024-02-21T11:09:16;13.50;;;6.20;;
68976;SDS011;56029;52.568;13.588;2024-02-21T11:11:43;16.95;;;6.75;;
68976;SDS011;56029;52.568;13.588;2024-02-21T11:14:10;15.38;;;6.70;;
68976;SDS011;56029;52.568;13.588;2024-02-21T11:16:41;15.37;;;6.10;;
68976;SDS011;56029;52.568;13.588;2024-02-21T11:19:18;13.95;;;5.90;;
68976;SDS011;56029;52.568;13.588;2024-02-21T11:21:45;13.45;;;6.38;;
68976;SDS011;56029;52.568;13.588;2024-02-21T11:24:11;13.87;;;6.40;;
68976;SDS011;56029;52.568;13.588;2024-02-21T11:26:37;12.98;;;5.85;;
68976;SDS011;56029;52.568;13.588;2024-02-21T11:29:03;11.60;;;5.63;;
68976;SDS011;56029;52.568;13.588;2024-02-21T11:31:41;12.32;;;5.93;;
68976;SDS011;56029;52.568;13.588;2024-02-21T11:34:10;15.55;;;6.63;;
68976;SDS011;56029;52.568;13.588;2024-02-21T11:36:46;11.40;;;5.43;;
68976;SDS011;56029;52.568;13.588;2024-02-21T11:39:12;15.35;;;5.80;;
68976;SDS011;56029;52.568;13.588;2024-02-21T11:41:38;12.47;;;5.90;;
68976;SDS011;56029;52.568;13.588;2024-02-21T11:44:03;13.30;;;5.60;;
68976;SDS011;56029;52.568;13.588;2024-02-21T11:46:29;14.00;;;6.07;;
68976;SDS011;56029;52.568;13.588;2024-02-21T11:48:54;13.83;;;5.93;;
68976;SDS011;56029;52.568;13.588;2024-02-21T11:51:26;11.93;;;5.70;;
68976;SDS011;56029;52.568;13.588;2024-02-21T11:53:52;12.40;;;5.30;;
68976;SDS011;56029;52.568;13.588;2024-02-21T11:56:18;14.07;;;5.50;;
68976;SDS011;56029;52.568;13.588;2024-02-21T11:58:44;11.93;;;5.43;;
68976;SDS011;56029;52.568;13.588;2024-02-21T12:01:10;11.18;;;5.45;;
68976;SDS011;56029;52.568;13.588;2024-02-21T12:03:36;14.73;;;5.90;;
68976;SDS011;56029;52.568;13.588;2024-02-21T12:06:02;11.88;;;5.47;;
68976;SDS011;56029;52.568;13.588;2024-02-21T12:08:28;12.70;;;5.27;;
68976;SDS011;56029;52.568;13.588;2024-02-21T12:11:15;12.25;;;5.72;;
68976;SDS011;56029;52.568;13.588;2024-02-21T12:13:44;10.48;;;5.30;;
68976;SDS011;56029;52.568;13.588;2024-02-21T12:16:10;10.87;;;5.10;;
68976;SDS011;56029;52.568;13.588;2024-02-21T12:18:35;9.93;;;4.80;;
68976;SDS011;56029;52.568;13.588;2024-02-21T12:21:01;11.53;;;5.23;;
68976;SDS011;56029;52.568;13.588;2024-02-21T12:23:26;10.60;;;4.77;;
68976;SDS011;56029;52.568;13.588;2024-02-21T12:25:52;9.57;;;4.90;;
68976;SDS011;56029;52.568;13.588;2024-02-21T12:28:18;11.33;;;4.97;;
68976;SDS011;56029;52.568;13.588;2024-02-21T12:30:43;10.30;;;4.55;;
68976;SDS011;56029;52.568;13.588;2024-02-21T12:33:09;10.80;;;5.00;;
68976;SDS011;56029;52.568;13.588;2024-02-21T12:35:34;10.85;;;4.97;;
68976;SDS011;56029;52.568;13.588;2024-02-21T12:38:00;10.23;;;4.77;;
68976;SDS011;56029;52.568;13.588;2024-02-21T12:40:26;10.47;;;4.50;;
68976;SDS011;56029;52.568;13.588;2024-02-21T12:42:51;10.97;;;4.70;;
68976;SDS011;56029;52.568;13.588;2024-02-21T12:45:17;11.57;;;4.25;;
68976;SDS011;56029;52.568;13.588;2024-02-21T12:47:42;9.33;;;4.23;;
68976;SDS011;56029;52.568;13.588;2024-02-21T12:50:08;10.60;;;4.63;;
68976;SDS011;56029;52.568;13.588;2024-02-21T12:52:33;11.50;;;5.20;;
68976;SDS011;56029;52.568;13.588;2024-02-21T12:54:59;8.70;;;4.07;;
68976;SDS011;56029;52.568;13.588;2024-02-21T12:57:25;10.13;;;4.63;;
68976;SDS011;56029;52.568;13.588;2024-02-21T12:59:50;9.25;;;4.57;;
68976;SDS011;56029;52.568;13.588;2024-02-21T13:02:16;8.20;;;4.10;;
68976;SDS011;56029;52.568;13.588;2024-02-21T13:04:41;8.87;;;4.43;;
68976;SDS011;56029;52.568;13.588;2024-02-21T13:07:07;9.57;;;4.00;;
68976;SDS011;56029;52.568;13.588;2024-02-21T13:09:32;9.47;;;4.60;;
68976;SDS011;56029;52.568;13.588;2024-02-21T13:11:58;8.83;;;4.10;;
68976;SDS011;56029;52.568;13.588;2024-02-21T13:14:23;8.15;;;3.30;;
68976;SDS011;56029;52.568;13.588;2024-02-21T13:16:49;7.87;;;3.63;;
68976;SDS011;56029;52.568;13.588;2024-02-21T13:19:15;7.57;;;3.27;;
68976;SDS011;56029;52.568;13.588;2024-02-21T13:21:41;8.35;;;4.00;;
68976;SDS011;56029;52.568;13.588;2024-02-21T13:24:06;9.13;;;3.40;;
68976;SDS011;56029;52.568;13.588;2024-02-21T13:26:32;7.27;;;3.50;;
68976;SDS011;56029;52.568;13.588;2024-02-21T13:28:57;8.20;;;3.93;;
68976;SDS011;56029;52.568;13.588;2024-02-21T13:31:23;9.85;;;3.70;;
68976;SDS011;56029;52.568;13.588;2024-02-21T13:33:48;9.23;;;3.80;;
68976;SDS011;56029;52.568;13.588;2024-02-21T13:36:14;11.40;;;3.90;;
68976;SDS011;56029;52.568;13.588;2024-02-21T13:38:39;9.77;;;4.15;;
68976;SDS011;56029;52.568;13.588;2024-02-21T13:41:05;9.80;;;3.97;;
68976;SDS011;56029;52.568;13.588;2024-02-21T13:43:31;9.15;;;3.55;;
68976;SDS011;56029;52.568;13.588;2024-02-21T13:45:59;10.00;;;3.85;;
68976;SDS011;56029;52.568;13.588;2024-02-21T13:48:26;9.67;;;3.70;;
68976;SDS011;56029;52.568;13.588;2024-02-21T13:50:51;7.88;;;3.58;;
68976;SDS011;56029;52.568;13.588;2024-02-21T13:53:17;8.53;;;3.50;;
68976;SDS011;56029;52.568;13.588;2024-02-21T13:55:42;9.67;;;3.50;;
68976;SDS011;56029;52.568;13.588;2024-02-21T13:58:08;9.75;;;4.00;;
68976;SDS011;56029;52.568;13.588;2024-02-21T14:00:33;10.77;;;3.87;;
68976;SDS011;56029;52.568;13.588;2024-02-21T14:02:59;9.95;;;4.10;;
68976;SDS011;56029;52.568;13.588;2024-02-21T14:05:25;10.13;;;4.20;;
68976;SDS011;56029;52.568;13.588;2024-02-21T14:07:51;7.93;;;3.90;;
68976;SDS011;56029;52.568;13.588;2024-02-21T14:10:16;11.13;;;4.03;;
68976;SDS011;56029;52.568;13.588;2024-02-21T14:12:42;10.13;;;4.20;;
68976;SDS011;56029;52.568;13.588;2024-02-21T14:15:07;9.73;;;4.20;;
68976;SDS011;56029;52.568;13.588;2024-02-21T14:17:33;10.67;;;4.90;;
68976;SDS011;56029;52.568;13.588;2024-02-21T14:19:58;11.47;;;4.70;;
68976;SDS011;56029;52.568;13.588;2024-02-21T14:22:24;9.75;;;4.20;;